Time;durP1;ratioP1;P1;durP2;ratioP2;P2;SDS_P1;SDS_P2;PMS_P1;PMS_P2;Temp;Humidity;BMP_temperature;BMP_pressure;BME280_temperature;BME280_humidity;BME280_pressure;Samples;Min_cycle;Max_cycle;Signal;HPM_P1;HPM_P2
2023/08/13 00:01:05;;;;;;;3.97;3.70;;;20.80;92.30;;;21.23;57.42;95382.97;5094904;28;20450;-55
2023/08/13 00:03:32;;;;;;;3.87;3.50;;;20.80;92.40;;;21.21;57.72;95384.97;5092295;28;21029;-56
2023/08/13 00:05:59;;;;;;;4.07;3.67;;;20.70;92.50;;;21.16;57.68;95372.19;5095859;28;20988;-56
2023/08/13 00:08:27;;;;;;;6.27;3.43;;;20.70;92.60;;;21.13;57.77;95376.09;5091471;28;20639;-56
2023/08/13 00:10:54;;;;;;;4.53;3.30;;;20.60;92.60;;;21.11;57.55;95378.09;5099049;28;21104;-57
2023/08/13 00:13:22;;;;;;;3.23;2.77;;;20.60;92.70;;;21.07;57.83;95376.03;5090342;28;20538;-54
2023/08/13 00:15:50;;;;;;;3.90;3.50;;;20.60;92.80;;;21.04;57.87;95366.53;5092995;28;20519;-57
2023/08/13 00:18:17;;;;;;;5.10;3.40;;;20.60;92.80;;;21.00;57.96;95372.47;5094423;28;20470;-57
2023/08/13 00:20:44;;;;;;;6.27;3.33;;;20.50;92.80;;;20.96;57.91;95374.72;5089908;28;20507;-57
2023/08/13 00:23:12;;;;;;;9.50;2.83;;;20.50;92.80;;;20.93;58.34;95375.09;5094865;28;20476;-55
2023/08/13 00:25:39;;;;;;;3.93;3.63;;;20.40;92.80;;;20.89;58.10;95379.97;5090600;28;20486;-56
2023/08/13 00:28:06;;;;;;;3.77;3.03;;;20.40;92.90;;;20.86;58.09;95382.22;5093297;28;20535;-55
2023/08/13 00:30:36;;;;;;;4.60;3.57;;;20.40;93.00;;;20.81;58.06;95381.97;5095657;28;21090;-57
2023/08/13 00:33:03;;;;;;;3.97;3.60;;;20.30;92.90;;;20.74;58.06;95387.22;5090771;28;20575;-57
2023/08/13 00:35:30;;;;;;;5.83;3.30;;;20.30;92.80;;;20.64;57.98;95382.19;5096647;28;20446;-56
2023/08/13 00:37:58;;;;;;;3.60;3.33;;;20.20;92.80;;;20.57;58.11;95382.13;5089581;28;20546;-57
2023/08/13 00:40:25;;;;;;;3.97;3.67;;;20.20;92.90;;;20.50;58.01;95388.41;5094272;28;20445;-56
2023/08/13 00:42:53;;;;;;;4.97;3.33;;;20.10;92.60;;;20.42;58.11;95397.38;5093391;28;20478;-56
2023/08/13 00:45:20;;;;;;;5.27;2.50;;;20.00;92.70;;;20.34;58.05;95400.13;5093431;28;20453;-55
2023/08/13 00:47:49;;;;;;;10.10;2.90;;;19.90;93.00;;;20.26;58.17;95395.72;5094501;28;20573;-57
2023/08/13 00:50:16;;;;;;;4.27;3.13;;;19.90;92.80;;;20.17;58.42;95383.47;5090941;28;21334;-55
2023/08/13 00:52:43;;;;;;;3.07;2.77;;;19.80;92.80;;;20.12;58.72;95386.72;5091571;28;20462;-57
2023/08/13 00:55:11;;;;;;;5.17;3.00;;;19.70;93.20;;;20.10;58.57;95393.28;5090230;28;20453;-56
2023/08/13 00:57:38;;;;;;;3.27;3.03;;;19.60;93.40;;;20.08;59.34;95388.13;5090173;28;20466;-55
2023/08/13 01:00:10;;;;;;;3.77;3.10;;;19.60;93.70;;;20.09;58.90;95389.75;5095458;28;20900;-57
2023/08/13 01:02:38;;;;;;;3.33;3.13;;;19.60;93.70;;;20.11;59.34;95392.25;5093655;28;21069;-56
2023/08/13 01:05:07;;;;;;;3.90;3.60;;;19.60;94.00;;;20.10;59.22;95386.09;5097464;28;20463;-58
2023/08/13 01:07:37;;;;;;;7.27;3.20;;;19.60;94.10;;;20.11;59.07;95384.22;5088621;28;20446;-55
2023/08/13 01:10:11;;;;;;;3.73;2.90;;;19.60;94.10;;;20.11;59.35;95386.91;5091774;28;20485;-56
2023/08/13 01:12:44;;;;;;;4.87;2.60;;;19.60;94.20;;;20.09;59.23;95387.09;5091398;28;20512;-56
2023/08/13 01:15:15;;;;;;;3.50;3.20;;;19.70;94.20;;;20.09;59.18;95386.25;5094395;28;20450;-57
2023/08/13 01:17:42;;;;;;;4.50;2.87;;;19.60;94.20;;;20.06;59.38;95385.63;5095831;28;20523;-56
2023/08/13 01:20:12;;;;;;;3.37;3.00;;;19.60;94.40;;;20.09;59.35;95383.59;5089898;28;20507;-57
2023/08/13 01:22:46;;;;;;;4.87;2.80;;;19.60;94.50;;;20.06;59.28;95371.44;5088823;28;20474;-57
2023/08/13 01:25:13;;;;;;;2.90;2.70;;;19.60;94.50;;;20.06;59.14;95382.13;5088952;28;20445;-57
2023/08/13 01:27:49;;;;;;;4.00;3.70;;;19.60;94.30;;;20.04;59.47;95376.97;5097587;28;20486;-57
2023/08/13 01:30:19;;;;;;;6.13;3.60;;;19.60;94.30;;;20.03;59.67;95374.47;5092073;28;20477;-54
2023/08/13 01:32:52;;;;;;;3.37;3.17;;;19.50;94.40;;;20.02;59.63;95379.00;5096281;28;20487;-56
2023/08/13 01:35:20;;;;;;;3.53;3.23;;;19.60;94.70;;;19.96;59.63;95368.25;5088281;28;20464;-55
2023/08/13 01:37:48;;;;;;;3.13;2.90;;;19.50;94.70;;;19.99;59.17;95376.69;5090614;28;20482;-55
2023/08/13 01:40:16;;;;;;;3.63;3.33;;;19.50;94.60;;;19.99;59.70;95378.56;5093002;28;20454;-57
2023/08/13 01:42:43;;;;;;;4.67;3.40;;;19.50;94.70;;;19.99;59.90;95383.91;5091558;28;21107;-58
2023/08/13 01:45:10;;;;;;;3.33;3.03;;;19.50;94.80;;;19.96;59.72;95379.75;5093712;28;20513;-58
2023/08/13 01:47:38;;;;;;;4.30;3.90;;;19.50;94.70;;;19.97;59.56;95391.25;5091235;28;20473;-57
2023/08/13 01:50:07;;;;;;;3.97;3.63;;;19.50;94.80;;;19.95;60.00;95383.41;5093554;28;21032;-66
2023/08/13 01:52:34;;;;;;;5.47;4.07;;;19.50;94.90;;;19.93;59.50;95390.78;5094727;28;20456;-56
2023/08/13 01:55:03;;;;;;;6.83;3.53;;;19.50;95.00;;;19.89;59.90;95384.16;5087096;28;20476;-57
2023/08/13 01:57:30;;;;;;;9.60;3.80;;;19.40;94.90;;;19.88;59.70;95387.84;5087442;28;20446;-55
2023/08/13 01:59:58;;;;;;;5.33;3.27;;;19.40;94.90;;;19.84;59.63;95378.56;5092502;28;20461;-56
2023/08/13 02:02:25;;;;;;;4.60;4.07;;;19.40;95.10;;;19.82;59.80;95380.59;5085012;28;20915;-56
2023/08/13 02:04:52;;;;;;;7.53;3.60;;;19.40;95.00;;;19.79;59.91;95381.78;5084740;28;20978;-55
2023/08/13 02:07:20;;;;;;;4.10;3.67;;;19.30;95.00;;;19.76;59.48;95379.44;5088810;28;20441;-57
2023/08/13 02:09:47;;;;;;;3.37;3.17;;;19.30;95.20;;;19.74;59.67;95386.00;5089447;28;20680;-57
2023/08/13 02:12:15;;;;;;;3.43;3.13;;;19.30;95.20;;;19.70;59.75;95381.03;5089221;28;20550;-57
2023/08/13 02:14:43;;;;;;;4.63;4.13;;;19.30;95.20;;;19.66;59.92;95384.25;5089614;28;20464;-57
2023/08/13 02:17:12;;;;;;;4.70;3.63;;;19.20;95.30;;;19.62;60.27;95378.44;5088937;28;20460;-55
2023/08/13 02:19:40;;;;;;;3.70;2.73;;;19.20;95.50;;;19.59;60.04;95373.47;5091586;28;20522;-56
2023/08/13 02:22:07;;;;;;;3.40;3.07;;;19.20;95.50;;;19.58;60.44;95384.31;5087951;28;20519;-55
2023/08/13 02:24:35;;;;;;;3.60;3.30;;;19.10;95.50;;;19.53;60.46;95376.84;5088842;28;20485;-55
2023/08/13 02:27:02;;;;;;;5.20;3.10;;;19.10;95.60;;;19.50;60.54;95374.56;5090155;28;20483;-56
2023/08/13 02:29:31;;;;;;;4.10;3.50;;;19.10;95.70;;;19.47;60.65;95377.59;5093692;28;20650;-56
2023/08/13 02:31:58;;;;;;;3.87;3.00;;;19.10;95.80;;;19.44;60.63;95378.81;5084827;28;20497;-55
2023/08/13 02:34:25;;;;;;;8.43;2.97;;;19.00;95.80;;;19.42;60.85;95388.81;5091968;28;20484;-56
2023/08/13 02:36:52;;;;;;;9.20;3.40;;;19.00;95.90;;;19.39;60.99;95389.16;5088860;28;20446;-56
2023/08/13 02:39:20;;;;;;;4.00;3.60;;;19.00;96.10;;;19.39;60.74;95399.03;5087591;28;20470;-57
2023/08/13 02:41:47;;;;;;;3.23;2.93;;;18.90;96.00;;;19.35;60.33;95387.91;5093802;28;20443;-57
2023/08/13 02:44:14;;;;;;;4.10;2.60;;;18.90;96.10;;;19.34;60.91;95395.03;5094133;28;20473;-56
2023/08/13 02:46:43;;;;;;;3.37;2.80;;;18.90;96.10;;;19.33;60.73;95392.56;5088864;28;20541;-58
2023/08/13 02:49:10;;;;;;;3.00;2.80;;;18.90;96.10;;;19.31;60.45;95391.91;5094063;28;20473;-56
2023/08/13 02:51:38;;;;;;;5.63;3.40;;;18.90;96.10;;;19.29;61.02;95392.09;5089040;28;20497;-55
2023/08/13 02:54:05;;;;;;;3.03;2.73;;;18.80;96.00;;;19.29;60.57;95399.28;5089307;27;20884;-57
2023/08/13 02:56:33;;;;;;;3.37;3.07;;;18.90;96.20;;;19.26;61.36;95402.31;5097798;28;20460;-57
2023/08/13 02:59:00;;;;;;;2.87;2.57;;;18.80;96.10;;;19.25;60.82;95397.97;5095776;28;20654;-56
2023/08/13 03:01:27;;;;;;;4.00;3.20;;;18.80;96.20;;;19.24;61.39;95399.81;5096405;28;20992;-57
2023/08/13 03:04:00;;;;;;;3.07;2.87;;;18.80;96.20;;;19.22;61.37;95401.81;5093805;28;20547;-56
2023/08/13 03:06:27;;;;;;;3.20;3.00;;;18.80;96.30;;;19.21;61.23;95400.19;5097421;28;20460;-56
2023/08/13 03:08:54;;;;;;;2.53;2.23;;;18.80;96.20;;;19.18;61.05;95395.22;5091817;28;20478;-55
2023/08/13 03:11:21;;;;;;;3.37;3.17;;;18.80;96.30;;;19.17;61.10;95398.88;5101437;28;20485;-58
2023/08/13 03:13:49;;;;;;;3.27;3.07;;;18.80;96.40;;;19.15;60.66;95404.41;5092277;28;21013;-55
2023/08/13 03:16:17;;;;;;;7.60;3.50;;;18.80;96.40;;;19.14;61.17;95393.91;5094562;28;20452;-57
2023/08/13 03:18:44;;;;;;;3.70;3.40;;;18.70;96.40;;;19.12;61.13;95398.59;5096719;28;20959;-57
2023/08/13 03:21:12;;;;;;;3.40;3.10;;;18.70;96.50;;;19.12;61.24;95402.09;5090113;28;20450;-57
2023/08/13 03:23:40;;;;;;;3.40;3.20;;;18.70;96.50;;;19.12;61.30;95394.09;5096273;28;20469;-56
2023/08/13 03:26:07;;;;;;;6.83;2.77;;;18.70;96.60;;;19.12;61.55;95399.41;5092084;28;20497;-56
2023/08/13 03:28:34;;;;;;;3.60;3.20;;;18.70;97.00;;;19.13;61.25;95405.56;5094617;28;20470;-55
2023/08/13 03:31:02;;;;;;;3.70;3.37;;;18.70;96.60;;;19.11;60.85;95407.59;5096594;28;20488;-55
2023/08/13 03:33:29;;;;;;;3.30;3.00;;;18.70;96.50;;;19.10;61.22;95403.25;5091000;28;20477;-57
2023/08/13 03:35:56;;;;;;;2.73;2.63;;;18.70;96.60;;;19.10;61.10;95395.25;5101282;28;20509;-56
2023/08/13 03:38:25;;;;;;;3.43;2.83;;;18.70;96.70;;;19.09;61.07;95396.28;5099785;28;20899;-57
2023/08/13 03:40:55;;;;;;;3.30;3.10;;;18.70;96.70;;;19.09;61.64;95396.28;5095919;28;20653;-57
2023/08/13 03:43:22;;;;;;;3.90;3.10;;;18.70;96.80;;;19.08;61.06;95392.78;5088040;28;20465;-58
2023/08/13 03:45:49;;;;;;;3.03;2.70;;;18.60;96.70;;;19.07;61.75;95390.28;5088275;28;20461;-57
2023/08/13 03:48:17;;;;;;;4.97;3.30;;;18.60;96.80;;;19.07;61.17;95400.97;5092122;28;20902;-57
2023/08/13 03:50:44;;;;;;;3.60;3.30;;;18.60;96.80;;;19.06;61.51;95400.13;5093419;28;20496;-56
2023/08/13 03:53:11;;;;;;;5.00;3.23;;;18.60;96.80;;;19.06;61.04;95396.66;5091998;28;20495;-55
2023/08/13 03:55:40;;;;;;;3.87;2.83;;;18.60;96.80;;;19.06;61.43;95399.31;5090210;28;20472;-58
2023/08/13 03:58:08;;;;;;;3.73;3.43;;;18.60;96.80;;;19.07;61.28;95400.97;5094316;28;20469;-60
2023/08/13 04:00:35;;;;;;;3.23;3.03;;;18.60;96.90;;;19.06;61.22;95407.31;5089019;28;20465;-58
2023/08/13 04:03:03;;;;;;;4.30;4.00;;;18.60;96.80;;;19.07;61.07;95408.97;5091217;28;20473;-58
2023/08/13 04:05:31;;;;;;;3.67;3.37;;;18.70;96.90;;;19.06;61.21;95408.13;5094811;28;20989;-57
2023/08/13 04:07:59;;;;;;;6.03;3.40;;;18.60;96.90;;;19.08;61.13;95406.09;5092218;28;20592;-57
2023/08/13 04:10:26;;;;;;;3.20;2.83;;;18.60;96.90;;;19.09;61.41;95406.97;5092356;28;20506;-58
2023/08/13 04:12:56;;;;;;;4.20;3.30;;;18.70;97.10;;;19.11;61.71;95412.94;5090839;28;20986;-57
2023/08/13 04:15:23;;;;;;;4.03;3.07;;;18.70;97.00;;;19.11;61.29;95408.41;5090696;28;21017;-57
2023/08/13 04:17:51;;;;;;;6.30;3.17;;;18.70;97.10;;;19.12;61.43;95409.28;5092729;28;20470;-57
2023/08/13 04:20:18;;;;;;;3.53;3.30;;;18.70;97.10;;;19.14;61.12;95409.91;5090092;28;20446;-57
2023/08/13 04:22:45;;;;;;;7.33;3.47;;;18.70;97.10;;;19.17;61.69;95420.22;5088611;28;20473;-57
2023/08/13 04:25:12;;;;;;;6.57;3.63;;;18.70;97.10;;;19.19;61.45;95415.53;5090098;28;20456;-58
2023/08/13 04:27:40;;;;;;;3.47;3.27;;;18.70;97.10;;;19.22;61.13;95422.34;5098072;28;21007;-57
2023/08/13 04:30:10;;;;;;;7.73;3.40;;;18.80;97.10;;;19.24;61.32;95426.50;5091432;28;20449;-60
2023/08/13 04:32:38;;;;;;;3.80;3.53;;;18.80;97.10;;;19.26;61.48;95431.66;5092862;28;21200;-58
2023/08/13 04:35:07;;;;;;;5.97;3.97;;;18.80;97.10;;;19.26;61.44;95429.81;5094464;28;20474;-57
2023/08/13 04:37:34;;;;;;;8.73;3.30;;;18.80;96.90;;;19.26;60.83;95427.13;5091991;28;20922;-57
2023/08/13 04:40:01;;;;;;;5.87;4.33;;;18.80;96.90;;;19.26;61.01;95427.13;5091127;28;20458;-57
2023/08/13 04:42:29;;;;;;;4.40;3.50;;;18.80;96.90;;;19.27;61.60;95436.81;5091681;28;20481;-57
2023/08/13 04:44:56;;;;;;;6.57;3.90;;;18.80;97.00;;;19.27;61.55;95439.47;5091695;28;20450;-57
2023/08/13 04:47:25;;;;;;;4.87;4.53;;;18.80;96.90;;;19.28;61.22;95441.13;5096477;28;20505;-57
2023/08/13 04:49:52;;;;;;;4.47;4.17;;;18.90;96.90;;;19.30;61.09;95436.44;5090845;28;20729;-58
2023/08/13 04:52:19;;;;;;;3.50;3.30;;;18.80;96.90;;;19.34;60.88;95442.25;5096100;28;20489;-62
2023/08/13 04:54:47;;;;;;;4.57;4.17;;;18.90;97.00;;;19.39;61.41;95447.03;5089803;28;20495;-57
2023/08/13 04:57:14;;;;;;;6.40;4.10;;;18.90;97.10;;;19.45;61.55;95440.97;5091382;28;20536;-59
2023/08/13 04:59:41;;;;;;;3.97;3.67;;;19.00;97.40;;;19.51;61.80;95450.94;5095262;28;20515;-58
2023/08/13 05:02:08;;;;;;;5.57;4.17;;;19.10;97.50;;;19.60;61.75;95451.69;5089170;28;20515;-56
2023/08/13 05:04:37;;;;;;;6.43;4.27;;;19.10;97.50;;;19.67;61.53;95452.59;5093824;28;20469;-57
2023/08/13 05:07:04;;;;;;;5.87;4.50;;;19.20;97.50;;;19.75;61.16;95446.34;5091734;28;20454;-57
2023/08/13 05:09:34;;;;;;;4.33;4.03;;;19.20;97.40;;;19.82;61.19;95453.47;5091058;28;20570;-57
2023/08/13 05:12:01;;;;;;;3.30;3.10;;;19.30;97.40;;;19.91;60.70;95453.38;5096042;28;20521;-57
2023/08/13 05:14:28;;;;;;;3.87;3.57;;;19.40;97.10;;;20.01;60.50;95459.28;5092827;28;20461;-56
2023/08/13 05:16:56;;;;;;;4.43;3.80;;;19.50;96.90;;;20.10;60.28;95455.53;5091992;28;20789;-56
2023/08/13 05:19:23;;;;;;;6.43;4.10;;;19.60;96.70;;;20.16;60.28;95449.44;5094715;28;20468;-57
2023/08/13 05:21:51;;;;;;;8.67;4.10;;;19.70;96.50;;;20.22;60.17;95462.06;5085850;28;20458;-56
2023/08/13 05:24:19;;;;;;;4.83;4.33;;;19.70;96.50;;;20.27;59.52;95455.34;5085388;28;20462;-55
2023/08/13 05:26:46;;;;;;;4.13;3.83;;;19.80;96.30;;;20.31;59.45;95460.13;5094059;28;20546;-58
2023/08/13 05:29:13;;;;;;;5.53;3.77;;;19.80;96.10;;;20.38;59.56;95452.19;5090163;28;20493;-57
2023/08/13 05:31:41;;;;;;;4.50;3.97;;;19.90;96.00;;;20.47;59.31;95458.25;5086974;28;20493;-57
2023/08/13 05:34:09;;;;;;;6.17;3.60;;;20.00;96.00;;;20.60;59.32;95455.72;5090481;28;20470;-58
2023/08/13 05:36:37;;;;;;;6.53;3.97;;;20.10;95.90;;;20.74;59.14;95454.06;5091097;28;20464;-56
2023/08/13 05:39:07;;;;;;;3.67;3.37;;;20.20;95.90;;;20.92;58.96;95448.31;5090168;28;20527;-57
2023/08/13 05:41:34;;;;;;;4.43;3.90;;;20.40;95.80;;;21.13;58.82;95444.78;5094230;28;21034;-56
2023/08/13 05:44:02;;;;;;;12.97;3.87;;;20.50;96.00;;;21.36;58.38;95449.13;5087256;28;20476;-59
2023/08/13 05:46:29;;;;;;;5.60;3.60;;;20.80;95.40;;;21.58;57.84;95453.47;5095528;27;21273;-58
2023/08/13 05:48:56;;;;;;;6.60;4.30;;;21.00;94.90;;;21.79;57.29;95455.25;5098774;27;20977;-57
2023/08/13 05:51:24;;;;;;;6.80;4.00;;;21.10;94.70;;;21.99;56.97;95466.09;5096065;28;20504;-58
2023/08/13 05:53:51;;;;;;;5.43;3.60;;;21.30;94.10;;;22.15;56.81;95462.31;5093233;27;20472;-56
2023/08/13 05:56:19;;;;;;;8.83;3.53;;;21.50;93.70;;;22.32;55.90;95456.63;5099065;28;21005;-59
2023/08/13 05:58:47;;;;;;;8.70;3.53;;;21.70;92.80;;;22.46;55.11;95462.88;5096242;28;20849;-56
2023/08/13 06:01:14;;;;;;;6.30;4.17;;;21.80;92.00;;;22.59;54.79;95462.09;5096339;28;20460;-56
2023/08/13 06:03:41;;;;;;;8.30;3.40;;;22.00;92.00;;;22.72;54.85;95459.47;5093979;28;20498;-60
2023/08/13 06:06:09;;;;;;;5.90;3.83;;;22.10;91.80;;;22.87;54.77;95470.88;5098683;28;20961;-57
2023/08/13 06:08:36;;;;;;;3.37;2.70;;;22.20;91.60;;;23.05;54.21;95466.78;5095722;27;20473;-58
2023/08/13 06:11:04;;;;;;;4.00;3.20;;;22.40;91.20;;;23.19;53.25;95463.16;5099532;28;20465;-59
2023/08/13 06:13:38;;;;;;;4.73;4.33;;;22.50;90.70;;;23.34;53.80;95468.31;5095190;28;20468;-55
2023/08/13 06:16:06;;;;;;;5.03;3.00;;;22.70;90.50;;;23.50;53.28;95469.78;5098449;28;20464;-55
2023/08/13 06:18:33;;;;;;;10.03;3.87;;;22.80;89.80;;;23.66;52.15;95465.03;5098790;28;20501;-58
2023/08/13 06:21:03;;;;;;;4.73;3.60;;;23.00;89.30;;;23.80;52.65;95477.44;5092972;28;20472;-56
2023/08/13 06:23:31;;;;;;;4.90;3.27;;;23.10;88.70;;;23.95;51.87;95470.00;5098421;28;20464;-59
2023/08/13 06:25:58;;;;;;;3.70;3.40;;;23.30;88.10;;;24.11;51.85;95467.91;5093037;28;20465;-56
2023/08/13 06:28:25;;;;;;;3.03;2.83;;;23.40;87.20;;;24.27;51.61;95467.44;5091832;28;20547;-55
2023/08/13 06:30:54;;;;;;;3.80;3.17;;;23.60;86.70;;;24.41;51.26;95470.09;5094033;28;20517;-57
2023/08/13 06:33:21;;;;;;;4.23;3.47;;;23.70;85.80;;;24.57;50.52;95461.59;5086149;28;20551;-60
2023/08/13 06:35:49;;;;;;;4.33;3.43;;;23.90;85.40;;;24.72;50.39;95464.00;5089917;28;20451;-58
2023/08/13 06:38:16;;;;;;;3.90;3.50;;;24.00;84.10;;;24.85;49.96;95465.84;5092837;28;20885;-57
2023/08/13 06:40:44;;;;;;;6.70;3.47;;;24.20;83.60;;;24.97;49.21;95460.59;5088974;28;20442;-60
2023/08/13 06:43:11;;;;;;;3.90;3.70;;;24.30;82.60;;;25.12;49.77;95473.75;5090900;28;20534;-56
2023/08/13 06:45:39;;;;;;;4.00;3.63;;;24.40;81.90;;;25.26;48.76;95458.34;5092120;28;20453;-57
2023/08/13 06:48:08;;;;;;;4.60;3.27;;;24.50;81.00;;;25.38;48.52;95465.53;5087435;28;20465;-56
2023/08/13 06:50:36;;;;;;;4.80;2.70;;;24.70;80.20;;;25.52;48.46;95460.06;5092692;28;20453;-57
2023/08/13 06:53:04;;;;;;;5.40;3.47;;;24.80;79.60;;;25.61;48.10;95455.22;5086073;28;20500;-57
2023/08/13 06:55:31;;;;;;;3.70;3.40;;;24.90;79.40;;;25.65;47.85;95451.03;5092414;28;20448;-56
2023/08/13 06:57:59;;;;;;;4.30;3.90;;;25.00;78.60;;;25.76;48.11;95453.84;5087202;28;20842;-58
2023/08/13 07:00:26;;;;;;;5.00;4.57;;;25.10;78.20;;;25.88;47.56;95456.63;5089590;28;20482;-54
2023/08/13 07:02:53;;;;;;;4.43;4.03;;;25.20;77.60;;;26.00;46.99;95447.88;5091337;28;20525;-56
2023/08/13 07:05:22;;;;;;;4.57;3.90;;;25.30;76.80;;;26.14;46.84;95448.56;5088269;28;20836;-55
2023/08/13 07:07:50;;;;;;;7.90;3.50;;;25.40;76.00;;;26.29;46.42;95452.53;5093815;28;20464;-58
2023/08/13 07:10:17;;;;;;;10.03;3.73;;;25.60;75.30;;;26.36;45.69;95449.75;5091630;28;20452;-59
2023/08/13 07:12:44;;;;;;;7.20;3.87;;;25.70;74.20;;;26.35;45.71;95455.38;5091511;28;20484;-54
2023/08/13 07:15:12;;;;;;;10.23;4.20;;;25.70;73.70;;;26.36;45.83;95447.06;5089467;28;20953;-57
2023/08/13 07:17:39;;;;;;;4.33;3.93;;;25.70;72.90;;;26.47;45.70;95448.19;5091399;28;20472;-56
2023/08/13 07:20:09;;;;;;;3.97;3.67;;;25.70;73.00;;;26.58;45.47;95449.28;5091653;28;20449;-59
2023/08/13 07:22:38;;;;;;;3.37;3.17;;;25.90;72.70;;;26.71;45.30;95438.38;5092399;28;20992;-59
2023/08/13 07:25:07;;;;;;;4.13;3.83;;;26.00;72.80;;;26.90;45.51;95446.44;5095937;28;20490;-58
2023/08/13 07:27:34;;;;;;;7.97;3.97;;;26.10;73.60;;;27.02;44.67;95442.72;5095561;28;20433;-61
2023/08/13 07:30:01;;;;;;;5.40;3.50;;;26.30;71.90;;;27.15;44.41;95446.28;5095022;28;20512;-57
2023/08/13 07:32:29;;;;;;;10.33;3.77;;;26.40;71.20;;;27.30;43.92;95445.88;5094826;28;20489;-59
2023/08/13 07:34:56;;;;;;;3.97;3.53;;;26.60;71.00;;;27.38;43.66;95442.88;5098496;28;20449;-54
2023/08/13 07:37:23;;;;;;;6.30;3.67;;;26.70;70.00;;;27.43;42.80;95442.19;5095532;28;20433;-58
2023/08/13 07:39:52;;;;;;;3.50;3.17;;;26.70;68.20;;;27.52;42.69;95444.31;5100276;28;20443;-58
2023/08/13 07:42:19;;;;;;;5.30;4.07;;;26.80;68.10;;;27.68;43.22;95437.38;5098514;28;20432;-59
2023/08/13 07:44:47;;;;;;;4.43;3.60;;;27.00;68.20;;;27.89;42.76;95438.69;5099510;28;20529;-60
2023/08/13 07:47:19;;;;;;;6.90;3.20;;;27.20;68.00;;;28.10;41.99;95436.47;5097557;28;20450;-58
2023/08/13 07:49:46;;;;;;;9.03;3.80;;;27.30;67.00;;;28.27;42.21;95431.19;5095854;28;20441;-59
2023/08/13 07:52:13;;;;;;;4.70;3.67;;;27.50;66.10;;;28.41;41.34;95434.44;5092058;28;20496;-54
2023/08/13 07:54:40;;;;;;;6.13;3.70;;;27.70;65.10;;;28.55;41.45;95435.00;5089666;28;20507;-54
2023/08/13 07:57:09;;;;;;;4.87;3.30;;;27.80;64.20;;;28.65;40.89;95429.03;5093623;28;20465;-58
2023/08/13 07:59:36;;;;;;;3.97;3.33;;;27.90;63.20;;;28.70;40.05;95421.00;5097426;28;20469;-57
2023/08/13 08:02:04;;;;;;;5.30;3.50;;;28.00;62.80;;;28.78;39.92;95432.28;5100590;28;20502;-59
2023/08/13 08:04:31;;;;;;;4.63;3.90;;;28.10;62.30;;;28.94;40.09;95421.75;5093497;28;20472;-58
2023/08/13 08:06:58;;;;;;;6.13;3.70;;;28.20;62.40;;;29.07;39.80;95417.91;5092928;28;21146;-54
2023/08/13 08:09:25;;;;;;;4.80;3.23;;;28.40;62.10;;;29.25;39.49;95415.03;5097615;28;20548;-55
2023/08/13 08:11:53;;;;;;;4.60;4.13;;;28.50;61.90;;;29.47;39.29;95411.59;5097345;28;21406;-55
2023/08/13 08:14:21;;;;;;;4.07;3.67;;;28.70;61.90;;;29.63;39.25;95410.75;5091758;28;20704;-57
2023/08/13 08:16:50;;;;;;;6.40;3.47;;;28.90;61.30;;;29.72;38.04;95411.19;5096867;28;20448;-57
2023/08/13 08:19:18;;;;;;;5.47;3.23;;;29.00;59.70;;;29.83;38.65;95401.34;5088973;28;20477;-59
2023/08/13 08:21:45;;;;;;;3.80;3.50;;;29.10;59.40;;;29.95;37.68;95406.69;5089307;28;20569;-56
2023/08/13 08:24:12;;;;;;;5.70;3.63;;;29.20;59.10;;;30.09;37.59;95405.25;5096389;28;20277;-55
2023/08/13 08:26:39;;;;;;;5.47;4.20;;;29.30;58.70;;;30.18;37.56;95398.31;5089471;28;20883;-60
2023/08/13 08:29:07;;;;;;;3.53;3.30;;;29.50;58.70;;;30.31;37.74;95396.31;5091867;28;20226;-59
2023/08/13 08:31:35;;;;;;;3.20;2.90;;;29.60;58.50;;;30.53;37.74;95389.00;5093571;28;20191;-58
2023/08/13 08:34:02;;;;;;;10.77;4.13;;;29.70;58.60;;;30.77;37.77;95377.88;5089625;28;20295;-58
2023/08/13 08:36:30;;;;;;;8.23;3.20;;;30.00;58.50;;;30.97;37.08;95390.03;5088735;28;20213;-57
2023/08/13 08:38:57;;;;;;;4.60;3.60;;;30.20;57.70;;;31.10;36.42;95387.75;5079670;28;20606;-54
2023/08/13 08:41:25;;;;;;;3.53;3.23;;;30.40;56.60;;;31.21;36.12;95388.66;5091652;28;20778;-59
2023/08/13 08:43:52;;;;;;;3.70;3.40;;;30.50;56.30;;;31.28;35.95;95383.03;5090231;28;20211;-55
2023/08/13 08:46:19;;;;;;;5.50;4.50;;;30.60;56.00;;;31.36;35.82;95381.75;5091762;28;20199;-56
2023/08/13 08:48:48;;;;;;;3.30;3.10;;;30.60;55.40;;;31.45;35.39;95372.84;5096569;28;20295;-58
2023/08/13 08:51:15;;;;;;;4.23;2.70;;;30.70;55.30;;;31.51;34.54;95381.03;5090353;28;20884;-63
2023/08/13 08:53:43;;;;;;;6.57;3.00;;;30.80;53.80;;;31.54;34.77;95377.84;5093486;28;20729;-57
2023/08/13 08:56:10;;;;;;;8.20;3.37;;;30.90;53.70;;;31.65;34.40;95374.09;5091647;28;20198;-60
2023/08/13 08:58:37;;;;;;;3.27;3.07;;;30.90;53.40;;;31.81;34.88;95369.63;5090545;28;20705;-59
2023/08/13 09:01:05;;;;;;;3.37;3.07;;;31.10;54.30;;;32.13;34.79;95369.56;5092187;28;20207;-56
2023/08/13 09:03:32;;;;;;;3.50;3.20;;;31.30;54.40;;;32.47;34.37;95360.16;5090640;28;20832;-57
2023/08/13 09:06:01;;;;;;;4.72;3.05;;;31.60;53.70;;;32.76;33.67;95373.38;5092934;28;20203;-57
2023/08/13 09:08:28;;;;;;;4.53;3.33;;;31.90;52.90;;;33.00;33.45;95368.25;5096403;28;20215;-60
2023/08/13 09:10:56;;;;;;;5.25;3.42;;;32.20;52.30;;;33.20;33.40;95360.16;5090837;28;20261;-56
2023/08/13 09:13:24;;;;;;;6.78;3.42;;;32.40;52.30;;;33.32;32.41;95354.41;5086568;28;20258;-60
2023/08/13 09:15:51;;;;;;;5.68;2.92;;;32.50;50.50;;;33.29;32.40;95351.41;5094390;28;20211;-56
2023/08/13 09:18:19;;;;;;;3.78;3.47;;;32.50;50.20;;;33.17;32.15;95355.22;5091362;28;20279;-58
2023/08/13 09:20:48;;;;;;;6.35;2.97;;;32.50;50.20;;;33.15;32.46;95351.09;5089303;28;20196;-56
2023/08/13 09:23:22;;;;;;;3.35;2.97;;;32.50;50.70;;;33.11;32.41;95352.72;5090777;28;20223;-60
2023/08/13 09:25:53;;;;;;;5.63;3.58;;;32.40;50.40;;;33.01;32.47;95356.25;5085701;28;20625;-57
2023/08/13 09:28:21;;;;;;;3.42;3.22;;;32.40;50.00;;;32.96;32.60;95353.53;5093112;28;20305;-55
2023/08/13 09:30:48;;;;;;;5.38;3.22;;;32.30;50.40;;;33.00;31.73;95362.78;5089589;28;20823;-56
2023/08/13 09:33:16;;;;;;;5.68;2.95;;;32.30;49.80;;;32.85;31.52;95342.59;5093026;28;20715;-55
2023/08/13 09:35:44;;;;;;;3.05;2.60;;;32.20;48.80;;;32.81;31.65;95343.41;5088100;28;20252;-61
2023/08/13 09:38:11;;;;;;;32.70;9.15;;;32.20;48.60;;;32.75;31.54;95347.22;5089475;28;20756;-59
2023/08/13 09:40:40;;;;;;;7.07;3.10;;;32.10;48.70;;;32.63;31.61;95340.09;5086490;28;20269;-59
2023/08/13 09:43:08;;;;;;;30.98;7.43;;;32.00;48.80;;;32.60;32.36;95343.34;5084362;28;20225;-56
2023/08/13 09:45:36;;;;;;;12.40;5.32;;;31.90;49.50;;;32.76;32.63;95346.94;5091202;28;20207;-58
2023/08/13 09:48:06;;;;;;;2.92;2.70;;;32.00;50.20;;;32.81;32.41;95346.97;5094169;28;20234;-58
2023/08/13 09:50:35;;;;;;;8.23;3.45;;;32.10;49.50;;;32.85;32.22;95348.06;5088220;28;20196;-59
2023/08/13 09:53:03;;;;;;;3.70;3.40;;;32.20;49.40;;;32.93;31.65;95343.19;5093559;28;20349;-58
2023/08/13 09:55:33;;;;;;;3.97;3.70;;;32.20;49.20;;;33.02;30.48;95352.47;5093152;28;20198;-57
2023/08/13 09:58:02;;;;;;;6.88;2.92;;;32.30;48.10;;;33.09;31.22;95335.84;5091890;28;20279;-57
2023/08/13 10:00:29;;;;;;;6.90;3.17;;;32.30;48.50;;;33.26;31.28;95350.03;5089153;28;20712;-57
2023/08/13 10:02:57;;;;;;;3.42;3.10;;;32.50;48.30;;;33.17;30.27;95352.47;5087954;28;20219;-59
2023/08/13 10:05:24;;;;;;;4.25;3.17;;;32.50;47.50;;;32.92;30.37;95349.72;5093571;28;20971;-58
2023/08/13 10:07:51;;;;;;;10.70;3.28;;;32.30;47.00;;;32.65;30.89;95334.41;5089868;28;20226;-58
2023/08/13 10:10:19;;;;;;;4.13;3.30;;;32.20;47.50;;;32.62;31.32;95329.47;5092731;28;20202;-57
2023/08/13 10:12:46;;;;;;;4.15;3.63;;;32.10;48.20;;;32.88;31.49;95328.44;5091329;28;20696;-59
2023/08/13 10:15:15;;;;;;;5.95;3.75;;;32.20;48.80;;;33.18;30.45;95336.94;5092322;28;20206;-57
2023/08/13 10:17:44;;;;;;;4.38;3.10;;;32.40;47.70;;;33.18;30.82;95331.47;5088689;28;20240;-59
2023/08/13 10:20:11;;;;;;;3.65;3.00;;;32.50;47.30;;;33.26;31.53;95338.31;5087528;28;20218;-58